Huntington, Texas
Current Conditions -  °F | °C
As of 2:53 AM on Friday 28 Nov 2014 (Local Time) from KLFK Reporting Station
Clear Clear  
Wind Chill: 36°   Ceiling: Unl
Heat Index: 40°   Visibility: 10mi
Dew Point: 33°   Wind: 6mph
Humidity: 77%   Direction: 130°SE
Pressure: 30.39"   Gusts: NA
Location:  31.28°N, 94.58°W
Report Text: KLFK 280853Z AUTO 13005KT 10SM CLR 04/01 A3039 RMK AO2 SLP289 T00440006 56007 $
Loading
Personal Weather Stations






























Interactive Weather Map New forecast layout! Learn more

10-Day Weather Forecast

Advertisements
Track Severe Weather on mobile